createdAt,value
2022-08-23T00:01:27.943Z,21.60
2022-08-23T00:04:02.399Z,21.50
2022-08-23T00:06:33.823Z,21.40
2022-08-23T00:09:01.927Z,21.40
2022-08-23T00:11:34.598Z,21.40
2022-08-23T00:14:04.573Z,21.30
2022-08-23T00:16:34.244Z,21.30
2022-08-23T00:19:02.708Z,21.20
2022-08-23T00:21:30.885Z,21.30
2022-08-23T00:23:59.377Z,21.20
2022-08-23T00:26:30.244Z,21.30
2022-08-23T00:28:59.852Z,21.20
2022-08-23T00:31:32.023Z,21.20
2022-08-23T00:34:01.164Z,21.30
2022-08-23T00:36:32.599Z,21.30
2022-08-23T00:39:02.510Z,21.30
2022-08-23T00:41:30.646Z,21.30
2022-08-23T00:44:17.788Z,21.30
2022-08-23T00:47:20.563Z,21.30
2022-08-23T00:49:52.057Z,21.30
2022-08-23T00:52:29.410Z,21.30
2022-08-23T00:54:58.101Z,21.40
2022-08-23T00:57:26.401Z,21.40
2022-08-23T00:59:57.884Z,21.40
2022-08-23T01:02:26.100Z,21.40
2022-08-23T01:04:59.457Z,21.40
2022-08-23T01:07:33.709Z,21.40
2022-08-23T01:10:04.571Z,21.40
2022-08-23T01:12:39.970Z,21.40
2022-08-23T01:15:12.456Z,21.40
2022-08-23T01:17:42.054Z,21.40
2022-08-23T01:20:12.255Z,21.40
2022-08-23T01:22:46.983Z,21.30
2022-08-23T01:25:18.344Z,21.30
2022-08-23T01:27:47.798Z,21.30
2022-08-23T01:30:18.795Z,21.20
2022-08-23T01:32:52.867Z,21.00
2022-08-23T01:37:50.477Z,20.80
2022-08-23T01:40:20.909Z,20.80
2022-08-23T01:42:50.096Z,20.70
2022-08-23T01:45:18.868Z,20.60
2022-08-23T01:47:47.693Z,20.60
2022-08-23T01:50:15.973Z,20.60
2022-08-23T01:52:46.667Z,20.60
2022-08-23T01:55:16.531Z,20.60
2022-08-23T01:57:47.773Z,20.60
2022-08-23T02:00:17.846Z,20.60
2022-08-23T02:02:47.183Z,20.60
2022-08-23T02:05:17.480Z,20.60
2022-08-23T02:07:47.262Z,20.60
2022-08-23T02:10:25.573Z,20.60
2022-08-23T02:12:58.284Z,20.70
2022-08-23T02:15:26.447Z,20.70
2022-08-23T02:17:54.977Z,20.70
2022-08-23T02:20:23.744Z,20.70
2022-08-23T02:22:51.993Z,20.70
2022-08-23T02:25:21.237Z,20.80
2022-08-23T02:27:49.473Z,20.70
2022-08-23T02:30:19.555Z,20.70
2022-08-23T02:32:47.749Z,20.80
2022-08-23T02:35:19.539Z,20.80
2022-08-23T02:37:47.726Z,20.80
2022-08-23T02:40:15.931Z,20.80
2022-08-23T02:42:44.104Z,20.80
2022-08-23T02:45:13.136Z,20.90
2022-08-23T02:47:51.226Z,20.90
2022-08-23T02:50:19.803Z,20.90
2022-08-23T02:52:50.687Z,20.90
2022-08-23T02:55:18.990Z,20.90
2022-08-23T02:57:47.200Z,20.90
2022-08-23T03:00:16.489Z,20.90
2022-08-23T03:02:46.449Z,20.90
2022-08-23T03:05:14.997Z,20.90
2022-08-23T03:07:43.192Z,20.90
2022-08-23T03:10:12.073Z,20.90
2022-08-23T03:12:40.380Z,20.90
2022-08-23T03:15:09.551Z,20.90
2022-08-23T03:17:37.720Z,20.90
2022-08-23T03:20:08.864Z,20.90
2022-08-23T03:22:37.519Z,20.90
2022-08-23T03:25:06.917Z,20.90
2022-08-23T03:27:38.446Z,20.90
2022-08-23T03:30:19.987Z,20.90
2022-08-23T03:32:49.709Z,21.00
2022-08-23T03:35:24.460Z,21.00
2022-08-23T03:37:55.321Z,21.00
2022-08-23T03:40:24.143Z,21.00
2022-08-23T03:42:53.527Z,20.90
2022-08-23T03:45:22.081Z,20.90
2022-08-23T03:47:50.743Z,20.90
2022-08-23T03:50:22.236Z,20.90
2022-08-23T03:52:50.354Z,20.90
2022-08-23T03:55:22.586Z,20.90
2022-08-23T03:57:50.876Z,20.90
2022-08-23T04:00:20.286Z,20.80
2022-08-23T04:02:48.911Z,20.80
2022-08-23T04:05:17.258Z,20.80
2022-08-23T04:07:46.906Z,20.80
2022-08-23T04:10:15.784Z,20.90
2022-08-23T04:12:47.078Z,20.90
2022-08-23T04:15:15.222Z,20.90
2022-08-23T04:17:47.851Z,20.90
2022-08-23T04:20:25.212Z,20.90
2022-08-23T04:22:57.375Z,20.90
2022-08-23T04:25:33.616Z,20.90
2022-08-23T04:28:07.705Z,20.90
2022-08-23T04:30:36.916Z,20.80
2022-08-23T04:33:09.948Z,20.80
2022-08-23T04:35:39.616Z,20.80
2022-08-23T04:38:24.314Z,20.80
2022-08-23T04:41:17.084Z,20.80
2022-08-23T04:43:50.692Z,20.80
2022-08-23T04:46:18.893Z,20.80
2022-08-23T04:48:47.245Z,20.80
2022-08-23T04:51:15.761Z,20.80
2022-08-23T04:53:47.037Z,20.80
2022-08-23T04:56:15.859Z,20.80
2022-08-23T04:58:46.454Z,20.80
2022-08-23T05:01:16.235Z,20.70
2022-08-23T05:03:52.174Z,20.70
2022-08-23T05:06:20.694Z,20.70
2022-08-23T05:08:50.484Z,20.70
2022-08-23T05:11:20.613Z,20.70
2022-08-23T05:13:53.091Z,20.70
2022-08-23T05:16:26.702Z,20.70
2022-08-23T05:18:54.883Z,20.70
2022-08-23T05:21:24.247Z,20.70
2022-08-23T05:24:03.887Z,20.70
2022-08-23T05:26:35.390Z,20.70
2022-08-23T05:29:15.515Z,20.70
2022-08-23T05:31:46.863Z,20.70
2022-08-23T05:34:22.631Z,20.70
2022-08-23T05:36:55.673Z,20.70
2022-08-23T05:39:37.632Z,20.80
2022-08-23T05:42:12.202Z,20.80
2022-08-23T05:44:41.162Z,20.80
2022-08-23T05:47:15.489Z,20.90
2022-08-23T05:49:44.346Z,20.90
2022-08-23T05:52:15.734Z,20.90
2022-08-23T05:54:45.291Z,21.00
2022-08-23T05:57:16.149Z,21.10
2022-08-23T05:59:52.118Z,21.10
2022-08-23T06:02:27.929Z,21.10
2022-08-23T06:05:00.933Z,21.20
2022-08-23T06:07:40.194Z,21.20
2022-08-23T06:10:16.310Z,21.20
2022-08-23T06:12:44.693Z,21.30
2022-08-23T06:15:12.976Z,21.30
2022-08-23T06:17:51.965Z,21.20
2022-08-23T06:20:26.960Z,21.20
2022-08-23T06:23:02.418Z,21.20
2022-08-23T06:25:39.057Z,21.20
2022-08-23T06:28:12.417Z,21.20
2022-08-23T06:31:06.232Z,21.20
2022-08-23T06:33:37.988Z,21.30
2022-08-23T06:36:13.198Z,21.30
2022-08-23T06:38:52.565Z,21.30
2022-08-23T06:41:22.335Z,21.40
2022-08-23T06:43:51.083Z,21.50
2022-08-23T06:46:23.556Z,21.60
2022-08-23T06:49:06.899Z,21.70
2022-08-23T06:51:43.042Z,21.80
2022-08-23T06:54:12.607Z,21.90
2022-08-23T06:56:51.126Z,22.10
2022-08-23T06:59:19.957Z,22.20
2022-08-23T07:01:55.152Z,22.40
2022-08-23T07:04:30.404Z,22.60
2022-08-23T07:07:01.967Z,22.90
2022-08-23T07:09:34.585Z,23.30
2022-08-23T07:12:04.780Z,23.60
2022-08-23T07:14:35.456Z,24.00
2022-08-23T07:17:09.721Z,24.20
2022-08-23T07:19:45.353Z,24.40
2022-08-23T07:22:15.661Z,24.60
2022-08-23T07:24:49.760Z,24.80
2022-08-23T07:27:26.875Z,25.00
2022-08-23T07:30:01.469Z,25.20
2022-08-23T07:32:32.585Z,25.30
2022-08-23T07:35:00.719Z,25.30
2022-08-23T07:37:31.046Z,25.30
2022-08-23T07:39:59.451Z,25.40
2022-08-23T07:42:35.745Z,25.40
2022-08-23T07:45:12.965Z,25.50
2022-08-23T07:47:50.086Z,25.60
2022-08-23T07:50:21.341Z,25.70
2022-08-23T07:52:50.107Z,25.80
2022-08-23T07:55:18.450Z,25.90
2022-08-23T07:57:55.191Z,26.00
2022-08-23T08:00:27.673Z,26.10
2022-08-23T08:02:55.819Z,26.20
2022-08-23T08:05:23.984Z,26.20
2022-08-23T08:07:57.611Z,26.30
2022-08-23T08:10:30.295Z,26.50
2022-08-23T08:12:59.909Z,26.60
2022-08-23T08:15:28.076Z,26.70
2022-08-23T08:17:57.441Z,26.80
2022-08-23T08:20:30.233Z,27.00
2022-08-23T08:23:00.577Z,27.20
2022-08-23T08:25:34.234Z,27.30
2022-08-23T08:28:05.317Z,27.50
2022-08-23T08:30:34.377Z,27.60
2022-08-23T08:33:07.099Z,27.80
2022-08-23T08:35:35.258Z,28.00
2022-08-23T08:38:08.084Z,28.20
2022-08-23T08:40:44.126Z,28.50
2022-08-23T08:43:20.862Z,28.60
2022-08-23T08:45:58.977Z,28.50
2022-08-23T08:48:29.732Z,28.40
2022-08-23T08:50:58.830Z,28.40
2022-08-23T08:53:29.917Z,28.50
2022-08-23T08:56:06.314Z,28.50
2022-08-23T08:58:42.560Z,28.60
2022-08-23T09:01:14.955Z,28.70
2022-08-23T09:03:43.163Z,28.80
2022-08-23T09:06:23.695Z,29.00
2022-08-23T09:09:02.194Z,29.20
2022-08-23T09:11:36.875Z,29.40
2022-08-23T09:14:18.462Z,29.60
2022-08-23T09:16:52.115Z,29.70
2022-08-23T09:19:28.273Z,29.90
2022-08-23T09:22:01.649Z,30.00
2022-08-23T09:24:29.897Z,30.10
2022-08-23T09:27:05.513Z,30.30
2022-08-23T09:29:35.948Z,30.50
2022-08-23T09:32:14.286Z,30.70
2022-08-23T09:34:46.480Z,30.90
2022-08-23T09:37:19.566Z,31.20
2022-08-23T09:39:49.720Z,31.30
2022-08-23T09:42:28.824Z,31.50
2022-08-23T09:44:58.201Z,31.60
2022-08-23T09:47:33.380Z,31.30
2022-08-23T09:50:09.202Z,31.00
2022-08-23T09:52:42.454Z,30.80
2022-08-23T09:55:27.990Z,30.60
2022-08-23T09:57:56.232Z,30.30
2022-08-23T10:00:27.973Z,30.10
2022-08-23T10:03:02.677Z,30.00
2022-08-23T10:05:39.355Z,29.90
2022-08-23T10:08:10.474Z,29.80
2022-08-23T10:10:50.945Z,29.60
2022-08-23T10:13:20.885Z,29.50
2022-08-23T10:15:57.505Z,29.40
2022-08-23T10:18:35.000Z,29.20
2022-08-23T10:21:09.971Z,29.20
2022-08-23T10:24:02.600Z,29.20
2022-08-23T10:26:32.933Z,29.30
2022-08-23T10:29:24.821Z,29.30
2022-08-23T10:31:59.406Z,29.50
2022-08-23T10:34:52.169Z,29.80
2022-08-23T10:37:30.365Z,30.10
2022-08-23T10:40:04.389Z,30.20
2022-08-23T10:42:37.849Z,30.30
2022-08-23T10:45:11.466Z,30.40
2022-08-23T10:47:49.870Z,30.30
2022-08-23T10:50:20.130Z,30.30
2022-08-23T10:53:01.687Z,30.20
2022-08-23T10:55:54.697Z,30.20
2022-08-23T10:58:25.240Z,30.30
2022-08-23T11:00:53.727Z,30.60
2022-08-23T11:03:29.091Z,30.70
2022-08-23T11:06:42.122Z,30.80
2022-08-23T11:09:11.330Z,30.90
2022-08-23T11:11:45.488Z,30.90
2022-08-23T11:14:26.557Z,31.10
2022-08-23T11:17:00.552Z,31.20
2022-08-23T11:19:50.521Z,31.40
2022-08-23T11:22:19.325Z,31.70
2022-08-23T11:24:55.856Z,31.90
2022-08-23T11:27:32.378Z,32.00
2022-08-23T11:30:34.535Z,32.10
2022-08-23T11:33:09.786Z,32.20
2022-08-23T11:35:43.019Z,32.30
2022-08-23T11:38:11.881Z,32.00
2022-08-23T11:40:59.975Z,31.90
2022-08-23T11:43:38.018Z,31.80
2022-08-23T11:46:30.530Z,31.70
2022-08-23T11:49:16.184Z,32.00
2022-08-23T11:51:48.460Z,32.30
2022-08-23T11:54:39.601Z,32.30
2022-08-23T11:57:20.605Z,32.10
2022-08-23T12:00:28.722Z,31.90
2022-08-23T12:03:03.195Z,31.70
2022-08-23T12:06:12.634Z,31.50
2022-08-23T12:09:04.242Z,31.30
2022-08-23T12:12:06.653Z,31.00
2022-08-23T12:14:49.833Z,30.80
2022-08-23T12:17:57.137Z,30.60
2022-08-23T12:20:49.625Z,30.40
2022-08-23T12:23:20.484Z,30.30
2022-08-23T12:25:59.915Z,30.30
2022-08-23T12:28:39.675Z,30.20
2022-08-23T12:31:14.926Z,30.10
2022-08-23T12:33:48.637Z,30.10
2022-08-23T12:36:21.204Z,30.40
2022-08-23T12:38:57.127Z,30.40
2022-08-23T12:41:29.653Z,30.40
2022-08-23T12:44:03.228Z,30.20
2022-08-23T12:46:38.116Z,30.10
2022-08-23T12:49:13.263Z,30.00
2022-08-23T12:51:50.274Z,30.10
2022-08-23T12:54:19.941Z,30.40
2022-08-23T12:56:51.813Z,30.80
2022-08-23T12:59:32.175Z,31.00
2022-08-23T13:02:01.967Z,31.30
2022-08-23T13:04:32.094Z,31.60
2022-08-23T13:07:05.496Z,31.90
2022-08-23T13:09:35.024Z,31.90
2022-08-23T13:12:06.860Z,32.00
2022-08-23T13:14:43.151Z,32.10
2022-08-23T13:17:17.286Z,32.30
2022-08-23T13:19:45.766Z,32.60
2022-08-23T13:22:22.253Z,32.70
2022-08-23T13:25:28.648Z,33.00
2022-08-23T13:28:09.199Z,33.20
2022-08-23T13:30:38.793Z,33.50
2022-08-23T13:33:21.369Z,33.60
2022-08-23T13:35:50.092Z,33.60
2022-08-23T13:38:27.464Z,33.60
2022-08-23T13:41:04.263Z,33.70
2022-08-23T13:43:37.757Z,33.80
2022-08-23T13:46:14.288Z,34.00
2022-08-23T13:48:47.165Z,34.10
2022-08-23T13:51:27.365Z,34.20
2022-08-23T13:53:55.857Z,34.20
2022-08-23T13:56:23.970Z,34.30
2022-08-23T13:59:00.564Z,34.10
2022-08-23T14:01:30.774Z,34.00
2022-08-23T14:03:59.080Z,34.00
2022-08-23T14:06:37.983Z,33.90
2022-08-23T14:09:07.515Z,33.90
2022-08-23T14:11:43.821Z,33.90
2022-08-23T14:14:13.382Z,33.90
2022-08-23T14:16:53.529Z,34.00
2022-08-23T14:22:10.021Z,34.00
2022-08-23T14:24:38.646Z,33.90
2022-08-23T14:27:13.236Z,33.80
2022-08-23T14:29:42.753Z,33.70
2022-08-23T14:32:11.250Z,33.60
2022-08-23T14:34:44.784Z,33.40
2022-08-23T14:38:13.393Z,33.30
2022-08-23T14:40:05.615Z,33.20
2022-08-23T14:42:34.080Z,33.10
2022-08-23T14:45:13.463Z,33.20
2022-08-23T14:47:41.654Z,33.20
2022-08-23T14:50:13.322Z,33.20
2022-08-23T14:52:46.731Z,33.30
2022-08-23T14:55:15.175Z,33.20
2022-08-23T14:57:43.435Z,33.20
2022-08-23T15:00:20.200Z,33.20
2022-08-23T15:02:50.204Z,33.20
2022-08-23T15:05:18.758Z,33.20
2022-08-23T15:07:47.576Z,33.20
2022-08-23T15:13:21.740Z,33.20
2022-08-23T15:15:57.223Z,33.20
2022-08-23T15:18:32.318Z,33.20
2022-08-23T15:21:05.087Z,33.10
2022-08-23T15:23:33.751Z,32.90
2022-08-23T15:26:12.374Z,32.90
2022-08-23T15:28:43.594Z,32.80
2022-08-23T15:31:13.481Z,32.50
2022-08-23T15:33:41.621Z,32.20
2022-08-23T15:36:18.156Z,32.00
2022-08-23T15:38:53.921Z,31.80
2022-08-23T15:41:22.121Z,31.60
2022-08-23T15:43:50.312Z,31.40
2022-08-23T15:46:21.442Z,31.20
2022-08-23T15:48:53.920Z,31.00
2022-08-23T15:51:22.268Z,31.00
2022-08-23T15:53:50.421Z,31.00
2022-08-23T15:56:22.638Z,30.90
2022-08-23T15:59:00.764Z,30.90
2022-08-23T16:01:33.874Z,30.80
2022-08-23T16:04:02.444Z,30.70
2022-08-23T16:06:35.913Z,30.50
2022-08-23T16:09:24.207Z,30.20
2022-08-23T16:12:00.276Z,30.10
2022-08-23T16:17:18.324Z,30.00
2022-08-23T16:19:46.791Z,30.00
2022-08-23T16:22:15.549Z,29.90
2022-08-23T16:24:44.022Z,29.90
2022-08-23T16:27:20.760Z,29.90
2022-08-23T16:29:49.122Z,29.90
2022-08-23T16:32:18.846Z,29.90
2022-08-23T16:34:53.402Z,29.90
2022-08-23T16:37:23.676Z,29.90
2022-08-23T16:39:52.280Z,30.00
2022-08-23T16:42:22.312Z,30.00
2022-08-23T16:44:51.122Z,30.00
2022-08-23T16:47:21.531Z,30.00
2022-08-23T16:49:49.912Z,30.00
2022-08-23T16:52:18.642Z,29.90
2022-08-23T16:54:48.911Z,29.80
2022-08-23T16:57:17.965Z,29.70
2022-08-23T16:59:48.034Z,29.60
2022-08-23T17:02:30.271Z,29.50
2022-08-23T17:04:59.485Z,29.40
2022-08-23T17:07:28.802Z,29.40
2022-08-23T17:09:57.687Z,29.30
2022-08-23T17:12:26.361Z,29.40
2022-08-23T17:14:57.140Z,29.40
2022-08-23T17:17:28.461Z,29.30
2022-08-23T17:19:57.444Z,29.30
2022-08-23T17:22:26.158Z,29.20
2022-08-23T17:24:54.537Z,29.20
2022-08-23T17:27:24.819Z,29.20
2022-08-23T17:29:59.289Z,29.10
2022-08-23T17:32:29.441Z,29.00
2022-08-23T17:35:00.098Z,28.90
2022-08-23T17:37:30.237Z,28.90
2022-08-23T17:40:00.738Z,28.90
2022-08-23T17:42:28.920Z,28.90
2022-08-23T17:45:01.216Z,28.80
2022-08-23T17:47:33.903Z,28.70
2022-08-23T17:50:03.521Z,28.50
2022-08-23T17:52:32.670Z,28.30
2022-08-23T17:55:01.485Z,28.20
2022-08-23T17:57:32.294Z,28.00
2022-08-23T18:00:02.195Z,27.80
2022-08-23T18:02:30.659Z,27.70
2022-08-23T18:05:01.059Z,27.60
2022-08-23T18:07:30.885Z,27.60
2022-08-23T18:09:59.780Z,27.50
2022-08-23T18:12:34.027Z,27.50
2022-08-23T18:15:15.772Z,27.30
2022-08-23T18:17:58.369Z,27.10
2022-08-23T18:20:38.350Z,26.90
2022-08-23T18:23:11.695Z,26.80
2022-08-23T18:25:41.618Z,26.70
2022-08-23T18:28:10.033Z,26.60
2022-08-23T18:30:39.895Z,26.60
2022-08-23T18:33:12.406Z,26.60
2022-08-23T18:35:44.961Z,26.60
2022-08-23T18:38:13.713Z,26.50
2022-08-23T18:40:46.518Z,26.50
2022-08-23T18:43:18.032Z,26.40
2022-08-23T18:45:48.336Z,26.20
2022-08-23T18:48:17.117Z,26.20
2022-08-23T18:50:49.388Z,26.10
2022-08-23T18:53:24.696Z,26.10
2022-08-23T18:55:58.058Z,26.10
2022-08-23T18:58:27.550Z,26.00
2022-08-23T19:00:57.415Z,25.80
2022-08-23T19:03:26.336Z,25.80
2022-08-23T19:05:56.717Z,25.70
2022-08-23T19:08:24.973Z,25.60
2022-08-23T19:10:58.257Z,25.60
2022-08-23T19:13:27.261Z,25.50
2022-08-23T19:15:57.201Z,25.50
2022-08-23T19:18:26.800Z,25.40
2022-08-23T19:20:57.319Z,25.40
2022-08-23T19:23:25.468Z,25.40
2022-08-23T19:25:53.926Z,25.40
2022-08-23T19:28:54.413Z,25.30
2022-08-23T19:31:25.575Z,25.30
2022-08-23T19:34:03.093Z,25.30
2022-08-23T19:36:46.207Z,25.20
2022-08-23T19:39:33.009Z,25.20
2022-08-23T19:42:07.422Z,25.20
2022-08-23T19:44:39.406Z,25.20
2022-08-23T19:47:20.252Z,25.20
2022-08-23T19:50:08.133Z,25.20
2022-08-23T19:52:41.326Z,25.20
2022-08-23T19:55:13.632Z,25.20
2022-08-23T19:57:43.824Z,25.20
2022-08-23T20:00:43.037Z,25.20
2022-08-23T20:03:20.163Z,25.20
2022-08-23T20:05:54.092Z,25.10
2022-08-23T20:08:28.221Z,25.20
2022-08-23T20:11:01.618Z,25.10
2022-08-23T20:13:31.563Z,25.00
2022-08-23T20:16:01.061Z,25.00
2022-08-23T20:18:29.419Z,24.90
2022-08-23T20:20:57.777Z,24.90
2022-08-23T20:23:48.381Z,24.80
2022-08-23T20:26:17.180Z,24.80
2022-08-23T20:28:59.113Z,24.70
2022-08-23T20:31:29.796Z,24.70
2022-08-23T20:34:07.512Z,24.60
2022-08-23T20:36:40.289Z,24.60
2022-08-23T20:39:10.087Z,24.60
2022-08-23T20:41:39.281Z,24.60
2022-08-23T20:44:10.423Z,24.60
2022-08-23T20:46:38.766Z,24.60
2022-08-23T20:49:07.039Z,24.50
2022-08-23T20:51:36.709Z,24.40
2022-08-23T20:54:05.483Z,24.30
2022-08-23T20:56:37.055Z,24.30
2022-08-23T20:59:05.502Z,24.20
2022-08-23T21:01:36.765Z,24.20
2022-08-23T21:04:08.479Z,24.10
2022-08-23T21:06:45.285Z,24.10
2022-08-23T21:09:20.421Z,24.00
2022-08-23T21:11:53.378Z,24.00
2022-08-23T21:14:22.575Z,24.00
2022-08-23T21:16:53.785Z,24.00
2022-08-23T21:19:22.258Z,24.00
2022-08-23T21:21:51.017Z,24.00
2022-08-23T21:24:20.003Z,24.00
2022-08-23T21:26:48.463Z,23.90
2022-08-23T21:29:19.345Z,23.90
2022-08-23T21:31:48.176Z,23.90
2022-08-23T21:34:17.590Z,23.80
2022-08-23T21:36:45.782Z,23.80
2022-08-23T21:39:42.876Z,23.70
2022-08-23T21:42:23.892Z,23.60
2022-08-23T21:45:19.067Z,23.50
2022-08-23T21:47:53.787Z,23.40
2022-08-23T21:50:29.479Z,23.40
2022-08-23T21:52:57.755Z,23.30
2022-08-23T21:55:35.960Z,23.20
2022-08-23T21:58:10.163Z,23.20
2022-08-23T22:00:43.318Z,23.20
2022-08-23T22:03:24.587Z,23.20
2022-08-23T22:05:54.511Z,23.20
2022-08-23T22:08:23.608Z,23.20
2022-08-23T22:10:57.309Z,23.10
2022-08-23T22:13:29.453Z,23.00
2022-08-23T22:16:00.707Z,22.90
2022-08-23T22:18:33.232Z,22.90
2022-08-23T22:21:02.298Z,22.90
2022-08-23T22:23:36.715Z,22.90
2022-08-23T22:26:07.548Z,22.80
2022-08-23T22:28:37.340Z,22.80
2022-08-23T22:31:08.666Z,22.80
2022-08-23T22:33:37.403Z,22.80
2022-08-23T22:36:14.989Z,22.80
2022-08-23T22:38:44.638Z,22.80
2022-08-23T22:41:16.870Z,22.80
2022-08-23T22:43:46.571Z,22.80
2022-08-23T22:46:19.755Z,22.70
2022-08-23T22:48:50.315Z,22.70
2022-08-23T22:51:20.000Z,22.70
2022-08-23T22:53:50.664Z,22.70
2022-08-23T22:56:22.409Z,22.60
2022-08-23T22:58:54.106Z,22.60
2022-08-23T23:01:28.328Z,22.60
2022-08-23T23:03:58.341Z,22.50
2022-08-23T23:06:27.375Z,22.50
2022-08-23T23:08:59.287Z,22.40
2022-08-23T23:11:28.451Z,22.50
2022-08-23T23:13:57.054Z,22.40
2022-08-23T23:16:28.277Z,22.40
2022-08-23T23:19:14.605Z,22.40
2022-08-23T23:21:45.073Z,22.40
2022-08-23T23:24:19.867Z,22.40
2022-08-23T23:26:50.107Z,22.30
2022-08-23T23:29:20.918Z,22.30
2022-08-23T23:31:51.720Z,22.30
2022-08-23T23:34:21.293Z,22.30
2022-08-23T23:36:50.208Z,22.20
2022-08-23T23:39:19.677Z,22.20
2022-08-23T23:41:49.135Z,22.20
2022-08-23T23:44:28.342Z,22.20
2022-08-23T23:47:03.911Z,22.20
2022-08-23T23:49:33.802Z,22.20
2022-08-23T23:52:03.857Z,22.10
2022-08-23T23:54:36.488Z,22.10
2022-08-23T23:57:04.867Z,22.10
2022-08-23T23:59:33.201Z,22.00
